Jeronimo Monteiro, Brazil
Current Conditions -  °F | °C
As of 12:00 PM on Saturday 25 Oct 2014 (Local Time) from SBCP Reporting Station
Clear Clear  
Wind Chill: 86°   Ceiling: Unl
Heat Index: 87°   Visibility: 6mi
Dew Point: 64°   Wind: 5mph
Humidity: 48%   Direction: 90°E
Pressure: 29.94"   Gusts: NA
Location:  20.79°S, 41.39°W
Report Text: SBCP 251400Z 09004KT CAVOK 30/18 Q1014
Loading
Personal Weather Stations






























Interactive Weather Map
Tropical Storm Tracking
New forecast layout! Learn more

10-Day Weather Forecast

Advertisements
Track Severe Weather on mobile